Time;durP1;ratioP1;P1;durP2;ratioP2;P2;SDS_P1;SDS_P2;PMS_P1;PMS_P2;Temp;Humidity;BMP_temperature;BMP_pressure;BME280_temperature;BME280_humidity;BME280_pressure;Samples;Min_cycle;Max_cycle;Signal;HPM_P1;HPM_P2
2023/08/23 00:00:30;;;;;;;8.32;5.60;;;;;;;16.50;100.00;102015.22;5070102;28;20051;-78
2023/08/23 00:02:57;;;;;;;8.73;6.53;;;;;;;16.48;100.00;102012.59;5040296;28;20056;-79
2023/08/23 00:05:24;;;;;;;8.95;6.55;;;;;;;16.47;100.00;102012.59;5083253;28;20047;-79
2023/08/23 00:07:52;;;;;;;6.70;5.82;;;;;;;16.44;100.00;102009.94;5060903;28;20048;-79
2023/08/23 00:10:20;;;;;;;8.73;6.15;;;;;;;16.42;100.00;102009.03;5054919;28;20055;-79
2023/08/23 00:12:51;;;;;;;7.65;6.43;;;;;;;16.41;100.00;102007.25;5070774;28;20060;-79
2023/08/23 00:15:18;;;;;;;8.30;6.15;;;;;;;16.39;100.00;102015.28;5036147;28;20048;-80
2023/08/23 00:17:46;;;;;;;9.98;5.82;;;;;;;16.38;100.00;102016.16;5069962;28;20061;-80
2023/08/23 00:20:13;;;;;;;7.85;6.22;;;;;;;16.36;100.00;102024.13;5068288;28;20512;-79
2023/08/23 00:22:41;;;;;;;7.13;6.40;;;;;;;16.35;100.00;102022.38;5057036;28;20055;-78
2023/08/23 00:25:09;;;;;;;6.57;5.97;;;;;;;16.32;100.00;102017.03;5062826;28;20040;-80
2023/08/23 00:27:36;;;;;;;10.23;6.28;;;;;;;16.30;100.00;102021.47;5088810;28;20060;-78
2023/08/23 00:30:05;;;;;;;7.68;6.88;;;;;;;16.26;100.00;102011.75;5038689;28;20059;-80
2023/08/23 00:32:32;;;;;;;6.97;6.28;;;;;;;16.25;100.00;102017.06;5076161;28;20051;-78
2023/08/23 00:35:00;;;;;;;7.03;6.43;;;;;;;16.24;100.00;102004.63;5070371;28;20040;-79
2023/08/23 00:37:28;;;;;;;7.55;6.55;;;;;;;16.22;100.00;102007.31;5060367;28;20047;-79
2023/08/23 00:39:55;;;;;;;8.70;6.22;;;;;;;16.21;100.00;102016.19;5072075;28;20059;-78
2023/08/23 00:42:23;;;;;;;10.93;7.88;;;;;;;16.22;100.00;102014.41;5074939;28;20051;-78
2023/08/23 00:44:50;;;;;;;7.63;6.93;;;;;;;16.23;100.00;102008.19;5044288;28;20079;-79
2023/08/23 00:47:17;;;;;;;10.57;7.30;;;;;;;16.22;100.00;102007.31;5060704;28;20051;-80
2023/08/23 00:49:46;;;;;;;12.63;8.10;;;;;;;16.20;100.00;101995.81;5086515;28;20055;-78
2023/08/23 00:52:15;;;;;;;10.48;7.20;;;;;;;16.20;100.00;102003.78;5059344;28;20413;-79
2023/08/23 00:54:44;;;;;;;11.27;7.45;;;;;;;16.20;100.00;102019.75;5070130;28;20053;-78
2023/08/23 00:57:12;;;;;;;8.25;6.68;;;;;;;16.21;100.00;102015.31;5102693;28;20044;-78
2023/08/23 00:59:41;;;;;;;8.73;7.20;;;;;;;16.19;100.00;102015.31;5069328;28;20047;-78
2023/08/23 01:02:09;;;;;;;8.13;6.82;;;;;;;16.17;100.00;102006.44;5055940;28;20040;-78
2023/08/23 01:04:36;;;;;;;8.20;6.55;;;;;;;16.16;100.00;102012.63;5069258;28;20055;-77
2023/08/23 01:07:13;;;;;;;7.95;5.95;;;;;;;16.13;100.00;102008.22;5040088;28;20047;-79
2023/08/23 01:09:59;;;;;;;10.57;7.18;;;;;;;16.12;100.00;102003.81;5070848;28;20048;-78
2023/08/23 01:12:39;;;;;;;7.13;6.43;;;;;;;16.10;100.00;102002.88;5091415;28;20051;-78
2023/08/23 01:15:27;;;;;;;7.13;6.43;;;;;;;16.09;100.00;102016.22;5089703;28;20040;-79
2023/08/23 01:17:58;;;;;;;7.40;6.45;;;;;;;16.06;100.00;102003.78;5053523;28;20051;-79
2023/08/23 01:20:27;;;;;;;7.35;6.65;;;;;;;16.05;100.00;102004.69;5054244;28;20052;-80
2023/08/23 01:23:11;;;;;;;7.13;6.43;;;;;;;16.04;100.00;102005.56;5069994;28;20048;-79
2023/08/23 01:25:44;;;;;;;6.85;6.15;;;;;;;16.02;100.00;101995.81;5065883;28;20051;-80
2023/08/23 01:28:11;;;;;;;7.57;6.00;;;;;;;16.01;100.00;102000.28;5079456;28;20044;-78
2023/08/23 01:30:43;;;;;;;11.73;7.22;;;;;;;16.00;100.00;102000.25;5074701;28;20052;-79
2023/08/23 01:33:37;;;;;;;9.55;8.05;;;;;;;15.97;100.00;102001.13;5019972;28;20052;-80
2023/08/23 01:36:22;;;;;;;7.97;7.18;;;;;;;15.94;100.00;102007.34;5054266;28;20048;-79
2023/08/23 01:38:51;;;;;;;11.45;7.07;;;;;;;15.93;100.00;101997.59;5088009;28;20052;-78
2023/08/23 01:41:19;;;;;;;10.65;7.03;;;;;;;15.92;100.00;101997.63;5061017;28;20048;-78
2023/08/23 01:43:47;;;;;;;8.55;7.63;;;;;;;15.91;100.00;101996.72;5072657;28;20493;-78
2023/08/23 01:46:14;;;;;;;10.82;7.40;;;;;;;15.91;100.00;101990.50;5084229;28;20045;-78
2023/08/23 01:48:42;;;;;;;8.45;7.63;;;;;;;15.89;100.00;101994.94;5051261;28;20393;-78
2023/08/23 01:51:10;;;;;;;8.07;7.25;;;;;;;15.87;100.00;101997.59;5056354;28;20067;-78
2023/08/23 01:53:37;;;;;;;10.80;7.40;;;;;;;15.86;100.00;101984.31;5073999;28;20056;-80
2023/08/23 01:56:06;;;;;;;7.93;6.85;;;;;;;15.85;100.00;101987.88;5072182;28;20051;-77
2023/08/23 01:58:34;;;;;;;14.65;7.22;;;;;;;15.84;100.00;101987.00;5057011;28;20056;-79
2023/08/23 02:01:02;;;;;;;12.65;6.97;;;;;;;15.83;100.00;101985.22;5066250;28;20789;-78
2023/08/23 02:03:29;;;;;;;11.82;7.13;;;;;;;15.83;100.00;101984.31;5027469;28;20044;-79
2023/08/23 02:05:57;;;;;;;9.63;7.38;;;;;;;15.82;100.00;101994.03;5034328;28;20063;-77
2023/08/23 02:08:25;;;;;;;8.45;7.57;;;;;;;15.82;100.00;101988.72;5060749;28;20485;-78
2023/08/23 02:10:52;;;;;;;10.27;8.15;;;;;;;15.81;100.00;101988.75;5069048;28;20045;-78
2023/08/23 02:13:21;;;;;;;15.00;8.15;;;;;;;15.81;100.00;101992.28;5057513;28;20047;-79
2023/08/23 02:15:48;;;;;;;14.48;8.27;;;;;;;15.81;100.00;101986.09;5073779;28;20062;-79
2023/08/23 02:18:16;;;;;;;11.13;8.60;;;;;;;15.80;100.00;101982.53;5044320;28;20526;-80
2023/08/23 02:20:44;;;;;;;13.20;7.80;;;;;;;15.80;100.00;101985.19;5051681;28;20512;-80
2023/08/23 02:23:12;;;;;;;9.07;8.18;;;;;;;15.78;100.00;101989.63;5070819;28;20052;-78
2023/08/23 02:25:41;;;;;;;10.40;8.18;;;;;;;15.77;100.00;101983.44;5073710;28;20055;-78
2023/08/23 02:28:09;;;;;;;12.07;7.68;;;;;;;15.76;100.00;101983.44;5057534;28;20055;-79
2023/08/23 02:30:39;;;;;;;9.77;8.75;;;;;;;15.74;100.00;101977.22;5068716;28;20052;-79
2023/08/23 02:33:07;;;;;;;9.68;8.68;;;;;;;15.72;100.00;101976.31;5054091;28;20825;-79
2023/08/23 02:35:40;;;;;;;16.85;8.90;;;;;;;15.70;100.00;101976.31;5044521;28;20051;-79
2023/08/23 02:38:08;;;;;;;11.00;8.63;;;;;;;15.69;100.00;101982.53;5081681;28;20552;-79
2023/08/23 02:40:40;;;;;;;10.18;8.40;;;;;;;15.69;100.00;101979.88;5089945;28;20036;-79
2023/08/23 02:43:08;;;;;;;10.18;8.63;;;;;;;15.68;100.00;101983.41;5068960;28;20390;-79
2023/08/23 02:45:41;;;;;;;9.45;8.50;;;;;;;15.65;100.00;101971.88;5045182;28;20066;-79
2023/08/23 02:48:10;;;;;;;9.80;7.72;;;;;;;15.65;100.00;101979.84;5069876;28;20047;-80
2023/08/23 02:50:38;;;;;;;10.77;8.90;;;;;;;15.63;100.00;101968.34;5028021;28;20051;-79
2023/08/23 02:53:05;;;;;;;10.23;8.88;;;;;;;15.62;100.00;101972.78;5079097;28;20521;-79
2023/08/23 02:55:37;;;;;;;8.90;7.82;;;;;;;15.62;100.00;101971.91;5085634;28;20045;-79
2023/08/23 02:58:05;;;;;;;9.77;8.43;;;;;;;15.59;100.00;101968.34;5080885;28;20515;-79
2023/08/23 03:00:33;;;;;;;11.85;6.75;;;;;;;15.58;100.00;101971.88;5039285;28;20049;-79
2023/08/23 03:03:02;;;;;;;7.43;6.40;;;;;;;15.56;100.00;101968.34;5058730;28;20105;-80
2023/08/23 03:05:31;;;;;;;7.32;6.32;;;;;;;15.54;100.00;101971.91;5087281;28;20493;-80
2023/08/23 03:07:59;;;;;;;7.57;6.25;;;;;;;15.52;100.00;101968.31;5032578;28;20051;-79
2023/08/23 03:10:26;;;;;;;9.07;6.60;;;;;;;15.49;100.00;101969.22;5062973;28;20048;-78
2023/08/23 03:12:55;;;;;;;16.77;6.97;;;;;;;15.46;100.00;101974.53;5071850;28;20847;-79
2023/08/23 03:15:22;;;;;;;19.52;6.40;;;;;;;15.43;100.00;101971.88;5082289;28;20911;-79
2023/08/23 03:17:50;;;;;;;19.75;6.82;;;;;;;15.40;100.00;101978.06;5075154;28;20060;-80
2023/08/23 03:20:18;;;;;;;10.02;5.55;;;;;;;15.37;100.00;101980.72;5061538;28;20052;-79
2023/08/23 03:22:45;;;;;;;9.43;5.38;;;;;;;15.34;100.00;101978.06;5017327;28;20056;-79
2023/08/23 03:25:13;;;;;;;8.88;5.70;;;;;;;15.31;100.00;101977.16;5055928;28;20051;-78
2023/08/23 03:27:41;;;;;;;8.35;5.78;;;;;;;15.32;100.00;101979.81;5053990;28;20573;-78
2023/08/23 03:30:10;;;;;;;8.90;6.45;;;;;;;15.32;100.00;101979.81;5059044;28;20067;-78
2023/08/23 03:32:39;;;;;;;10.15;5.97;;;;;;;15.33;100.00;101978.97;5090628;28;20048;-80
2023/08/23 03:35:09;;;;;;;21.27;6.63;;;;;;;15.32;100.00;101969.19;5058048;28;20070;-78
2023/08/23 03:37:37;;;;;;;8.23;5.70;;;;;;;15.31;100.00;101969.19;5040843;28;20044;-78
2023/08/23 03:40:06;;;;;;;6.80;5.95;;;;;;;15.31;100.00;101958.56;5066809;28;20059;-79
2023/08/23 03:42:34;;;;;;;6.32;5.65;;;;;;;15.31;100.00;101961.22;5058135;28;20044;-79
2023/08/23 03:45:05;;;;;;;7.13;6.40;;;;;;;15.29;100.00;101963.91;5056001;28;20051;-78
2023/08/23 03:47:32;;;;;;;;;;;;;;;15.28;100.00;101959.47;5075108;28;20067;-78
2023/08/23 03:50:01;;;;;;;7.72;6.90;;;;;;;15.26;100.00;101953.28;5090751;28;19994;-79
2023/08/23 03:52:29;;;;;;;7.78;7.00;;;;;;;15.27;100.00;101962.13;5051779;28;20059;-79
2023/08/23 03:54:57;;;;;;;12.20;7.45;;;;;;;15.27;100.00;101960.34;5066309;28;20044;-79
2023/08/23 03:57:26;;;;;;;10.00;7.95;;;;;;;15.27;100.00;101963.00;5092012;28;20036;-79
2023/08/23 03:59:54;;;;;;;12.23;8.10;;;;;;;15.28;100.00;101958.59;5054917;28;20055;-79
2023/08/23 04:02:22;;;;;;;9.27;7.40;;;;;;;15.29;100.00;101961.25;5054179;28;20115;-78
2023/08/23 04:04:50;;;;;;;8.90;7.70;;;;;;;15.31;100.00;101953.25;5093422;28;20059;-79
2023/08/23 04:07:17;;;;;;;8.63;7.53;;;;;;;15.33;100.00;101941.78;5051526;28;20044;-78
2023/08/23 04:09:45;;;;;;;11.43;7.45;;;;;;;15.35;100.00;101939.13;5065425;28;20477;-79
2023/08/23 04:12:13;;;;;;;9.30;7.85;;;;;;;15.35;100.00;101940.00;5092097;28;20063;-80
2023/08/23 04:14:40;;;;;;;9.57;7.93;;;;;;;15.35;100.00;101940.00;5088217;28;20438;-78
2023/08/23 04:17:08;;;;;;;7.78;6.95;;;;;;;15.37;100.00;101953.28;5055976;28;20052;-79
2023/08/23 04:19:36;;;;;;;9.80;8.35;;;;;;;15.39;100.00;101954.19;5068395;28;20059;-78
2023/08/23 04:22:04;;;;;;;9.60;8.27;;;;;;;15.40;100.00;101948.84;5078207;28;20056;-79
2023/08/23 04:24:31;;;;;;;11.82;7.82;;;;;;;15.42;100.00;101964.78;5029136;28;20523;-78
2023/08/23 04:27:03;;;;;;;9.18;8.20;;;;;;;15.43;100.00;101952.41;5090842;28;20055;-80
2023/08/23 04:29:30;;;;;;;11.30;8.55;;;;;;;15.45;100.00;101953.28;5079892;28;20048;-78
2023/08/23 04:31:58;;;;;;;9.40;8.50;;;;;;;15.47;100.00;101948.88;5046491;28;20056;-79
2023/08/23 04:34:29;;;;;;;12.55;8.95;;;;;;;15.48;100.00;101951.53;5053641;28;20052;-79
2023/08/23 04:36:57;;;;;;;10.48;8.85;;;;;;;15.51;100.00;101953.28;5052798;28;20416;-78
2023/08/23 04:39:25;;;;;;;14.43;9.13;;;;;;;15.52;100.00;101947.97;5022806;28;20075;-78
2023/08/23 04:41:54;;;;;;;10.93;9.82;;;;;;;15.53;100.00;101949.72;5093119;28;20586;-79
2023/08/23 04:44:22;;;;;;;10.98;9.07;;;;;;;15.54;100.00;101948.88;5084597;28;20067;-79
2023/08/23 04:46:50;;;;;;;10.30;8.90;;;;;;;15.55;100.00;101955.06;5093982;28;20040;-78
2023/08/23 04:49:18;;;;;;;15.50;8.55;;;;;;;15.54;100.00;101954.19;5063506;28;20520;-79
2023/08/23 04:51:46;;;;;;;9.85;8.00;;;;;;;15.53;100.00;101951.53;5089846;28;20052;-79
2023/08/23 04:54:15;;;;;;;10.98;9.57;;;;;;;15.54;100.00;101950.66;5040541;28;20052;-78
2023/08/23 04:56:42;;;;;;;10.38;9.27;;;;;;;15.57;100.00;101955.94;5046810;28;20063;-78
2023/08/23 04:59:10;;;;;;;10.63;9.52;;;;;;;15.59;100.00;101956.81;5075418;28;20052;-79
2023/08/23 05:01:37;;;;;;;13.20;9.60;;;;;;;15.63;100.00;101966.56;5059563;28;20052;-79
2023/08/23 05:04:07;;;;;;;12.73;9.65;;;;;;;15.65;100.00;101964.81;5070174;28;20512;-78
2023/08/23 05:06:35;;;;;;;12.50;9.98;;;;;;;15.69;100.00;101971.91;5059328;28;20056;-79
2023/08/23 05:09:06;;;;;;;13.15;10.00;;;;;;;15.71;100.00;101970.13;5092767;28;20040;-79
2023/08/23 05:11:33;;;;;;;;;;;;;;;15.73;100.00;101972.78;5050713;28;20063;-78
2023/08/23 05:14:02;;;;;;;17.35;10.63;;;;;;;15.74;100.00;101974.56;5071116;28;19920;-79
2023/08/23 05:16:29;;;;;;;13.82;10.32;;;;;;;15.71;100.00;101979.88;5036469;28;20041;-79
2023/08/23 05:18:58;;;;;;;13.38;10.95;;;;;;;15.71;100.00;101969.25;5064536;28;20051;-79
2023/08/23 05:21:26;;;;;;;15.00;11.40;;;;;;;15.76;100.00;101975.47;5056886;28;20071;-78
2023/08/23 05:23:55;;;;;;;15.88;11.43;;;;;;;15.78;100.00;101973.69;5068622;28;20402;-79
2023/08/23 05:26:22;;;;;;;15.70;11.98;;;;;;;15.81;100.00;101976.34;5024886;28;20040;-80
2023/08/23 05:28:49;;;;;;;16.55;12.50;;;;;;;15.84;100.00;101965.72;5073358;28;20563;-79
2023/08/23 05:31:17;;;;;;;17.02;12.07;;;;;;;15.87;100.00;101968.38;5072401;28;20055;-79
2023/08/23 05:33:45;;;;;;;18.80;13.38;;;;;;;15.90;100.00;101973.69;5062760;28;20067;-78
2023/08/23 05:36:13;;;;;;;18.98;13.10;;;;;;;15.92;100.00;101968.38;5074252;28;20051;-79
2023/08/23 05:38:40;;;;;;;20.38;13.32;;;;;;;15.95;100.00;101969.25;5067789;28;20065;-79
2023/08/23 05:41:09;;;;;;;18.92;14.30;;;;;;;15.98;100.00;101963.91;5039965;28;20052;-80
2023/08/23 05:43:37;;;;;;;23.35;15.02;;;;;;;16.01;100.00;101965.72;5071201;28;20877;-79
2023/08/23 05:46:04;;;;;;;19.08;13.65;;;;;;;16.03;100.00;101973.66;5069308;28;20064;-78
2023/08/23 05:48:34;;;;;;;22.70;15.15;;;;;;;16.06;100.00;101971.88;5040446;28;20048;-80
2023/08/23 05:51:04;;;;;;;24.20;15.00;;;;;;;16.07;100.00;101972.78;5045137;28;20048;-78
2023/08/23 05:53:33;;;;;;;22.92;15.70;;;;;;;16.10;100.00;101970.09;5073238;28;20048;-79
2023/08/23 05:56:01;;;;;;;26.15;15.45;;;;;;;16.12;100.00;101977.22;5041212;28;20074;-80
2023/08/23 05:58:30;;;;;;;24.40;15.05;;;;;;;16.18;100.00;101978.94;5089040;28;20032;-78
2023/08/23 06:00:59;;;;;;;22.80;15.27;;;;;;;16.25;100.00;101970.06;5041996;28;20052;-80
2023/08/23 06:03:27;;;;;;;21.25;14.70;;;;;;;16.36;100.00;101970.94;5073033;28;20075;-79
2023/08/23 06:05:55;;;;;;;27.27;15.32;;;;;;;16.47;100.00;101970.03;5070588;28;20052;-79
2023/08/23 06:08:22;;;;;;;23.70;15.52;;;;;;;16.56;100.00;101967.34;5055032;28;20047;-78
2023/08/23 06:10:50;;;;;;;23.30;15.85;;;;;;;16.68;100.00;101982.34;5092525;28;20055;-79
2023/08/23 06:13:17;;;;;;;21.70;14.05;;;;;;;16.89;100.00;101978.75;5036112;28;20060;-79
2023/08/23 06:15:45;;;;;;;19.17;13.27;;;;;;;17.10;100.00;101978.63;5089266;28;20056;-79
2023/08/23 06:18:12;;;;;;;19.45;12.95;;;;;;;17.21;100.00;101973.22;5073115;28;20075;-78
2023/08/23 06:20:40;;;;;;;21.02;13.55;;;;;;;17.28;100.00;101963.44;5059432;28;20067;-78
2023/08/23 06:23:08;;;;;;;18.13;12.13;;;;;;;17.39;100.00;101971.31;5034605;28;20056;-78
2023/08/23 06:25:35;;;;;;;16.05;11.90;;;;;;;17.52;100.00;101979.25;5067912;28;20040;-79
2023/08/23 06:28:03;;;;;;;18.75;13.48;;;;;;;17.68;100.00;101966.66;5021292;28;20074;-79
2023/08/23 06:30:32;;;;;;;20.45;13.43;;;;;;;17.88;100.00;101968.28;5068704;28;20675;-79
2023/08/23 06:33:00;;;;;;;16.25;12.50;;;;;;;18.10;100.00;101966.31;5066953;28;20047;-78
2023/08/23 06:35:27;;;;;;;16.75;12.57;;;;;;;18.41;100.00;101968.63;5050980;28;20064;-79
2023/08/23 06:37:55;;;;;;;17.13;13.25;;;;;;;18.61;100.00;101969.28;5072225;28;20055;-79
2023/08/23 06:40:22;;;;;;;17.85;11.77;;;;;;;18.77;100.00;101959.31;5051514;28;20057;-79
2023/08/23 06:42:51;;;;;;;15.60;12.07;;;;;;;18.83;100.00;101961.03;5033493;28;20059;-79
2023/08/23 06:45:18;;;;;;;15.45;11.48;;;;;;;18.89;100.00;101966.28;5045135;28;20493;-78
2023/08/23 06:47:46;;;;;;;16.60;12.43;;;;;;;18.94;100.00;101958.19;5055157;28;20422;-78
2023/08/23 06:50:14;;;;;;;15.43;11.82;;;;;;;18.96;100.00;101959.97;5061415;28;20060;-79
2023/08/23 06:52:43;;;;;;;15.80;12.02;;;;;;;18.98;100.00;101963.50;5073439;28;20052;-80
2023/08/23 06:55:12;;;;;;;15.50;12.02;;;;;;;19.04;100.00;101959.84;5073007;28;20047;-78
2023/08/23 06:57:40;;;;;;;15.77;11.77;;;;;;;19.14;100.00;101961.47;5087670;28;20833;-78
2023/08/23 07:00:09;;;;;;;17.77;12.20;;;;;;;19.30;100.00;101964.81;5020298;28;20052;-78
2023/08/23 07:02:37;;;;;;;15.02;11.65;;;;;;;19.48;100.00;101971.66;5056599;28;20056;-78
2023/08/23 07:05:05;;;;;;;14.48;10.93;;;;;;;19.68;100.00;101972.19;5072853;28;20052;-78
2023/08/23 07:07:32;;;;;;;17.98;11.07;;;;;;;19.84;100.00;101972.84;5089434;28;20055;-78
2023/08/23 07:10:00;;;;;;;13.40;10.52;;;;;;;19.93;100.00;101968.25;5072640;28;20052;-78
2023/08/23 07:12:45;;;;;;;14.80;11.13;;;;;;;19.97;100.00;101961.94;5041547;28;20055;-79
2023/08/23 07:15:12;;;;;;;17.33;10.73;;;;;;;20.02;100.00;101970.78;5055453;28;20044;-79
2023/08/23 07:17:40;;;;;;;12.30;9.90;;;;;;;20.00;100.00;101970.78;5070011;28;20078;-79
2023/08/23 07:20:09;;;;;;;13.32;10.32;;;;;;;20.06;100.00;101976.03;5071657;28;20440;-78
2023/08/23 07:22:37;;;;;;;12.32;10.50;;;;;;;20.05;100.00;101982.28;5051808;28;20043;-78
2023/08/23 07:25:05;;;;;;;14.98;10.55;;;;;;;20.03;100.00;101984.09;5064601;28;20044;-79
2023/08/23 07:27:36;;;;;;;14.80;10.77;;;;;;;19.97;100.00;101989.56;5055133;28;20055;-79
2023/08/23 07:30:05;;;;;;;13.63;9.68;;;;;;;19.95;100.00;101986.03;5047049;28;20048;-80
2023/08/23 07:32:33;;;;;;;13.15;9.63;;;;;;;19.97;100.00;101988.69;5071029;28;20052;-80
2023/08/23 07:35:00;;;;;;;13.98;10.13;;;;;;;20.01;100.00;101983.25;5041910;28;20805;-82
2023/08/23 07:37:28;;;;;;;11.52;8.88;;;;;;;20.02;100.00;101995.72;5059793;28;20050;-83
2023/08/23 07:39:55;;;;;;;12.15;9.00;;;;;;;19.99;100.00;101992.22;5070346;28;20044;-83
2023/08/23 07:42:24;;;;;;;12.95;9.25;;;;;;;20.00;100.00;101993.97;5058209;28;20393;-83
2023/08/23 07:44:52;;;;;;;11.27;10.07;;;;;;;20.03;100.00;101992.13;5054480;28;20074;-81
2023/08/23 07:47:19;;;;;;;14.23;8.73;;;;;;;20.06;100.00;101986.72;5013953;28;20048;-82
2023/08/23 07:49:47;;;;;;;9.35;8.35;;;;;;;20.13;100.00;101986.59;5034912;28;20052;-83
2023/08/23 07:52:14;;;;;;;10.77;8.70;;;;;;;20.22;100.00;101986.44;5067386;28;20039;-81
2023/08/23 07:54:42;;;;;;;9.15;8.25;;;;;;;20.29;100.00;101989.91;5070204;28;20055;-82
2023/08/23 07:57:11;;;;;;;11.45;8.45;;;;;;;20.34;100.00;101983.53;5047725;28;20051;-82
2023/08/23 07:59:39;;;;;;;11.98;8.40;;;;;;;20.43;100.00;101998.50;5048881;28;20044;-81
2023/08/23 08:02:07;;;;;;;12.38;8.57;;;;;;;20.55;100.00;101994.75;5018954;28;20053;-82
2023/08/23 08:04:34;;;;;;;9.45;7.70;;;;;;;20.67;100.00;101993.63;5066691;28;20052;-82
2023/08/23 08:07:02;;;;;;;11.45;8.20;;;;;;;20.75;100.00;101995.22;5072384;28;20048;-82
2023/08/23 08:09:29;;;;;;;10.07;8.02;;;;;;;20.81;100.00;101994.19;5081169;28;20028;-82
2023/08/23 08:11:58;;;;;;;11.90;9.50;;;;;;;20.92;100.00;101988.63;5064167;28;20052;-82
2023/08/23 08:14:25;;;;;;;12.00;7.85;;;;;;;20.98;100.00;101999.19;5077748;28;20060;-81
2023/08/23 08:16:52;;;;;;;12.43;7.38;;;;;;;21.01;100.00;101993.78;5033584;28;20048;-81
2023/08/23 08:19:20;;;;;;;14.18;7.20;;;;;;;21.07;100.00;101998.13;5086834;28;20032;-81
2023/08/23 08:21:47;;;;;;;8.93;7.43;;;;;;;21.15;100.00;101994.38;5056264;28;20052;-82
2023/08/23 08:24:15;;;;;;;8.50;6.90;;;;;;;21.20;100.00;101994.25;5053410;28;20485;-81
2023/08/23 08:26:43;;;;;;;8.60;6.25;;;;;;;21.30;100.00;102002.94;5058000;28;20136;-81
2023/08/23 08:29:11;;;;;;;7.82;5.43;;;;;;;21.43;100.00;101999.06;5068018;28;20508;-81
2023/08/23 08:31:40;;;;;;;6.50;5.75;;;;;;;21.60;100.00;102004.06;5085359;28;20059;-81
2023/08/23 08:34:08;;;;;;;6.30;5.47;;;;;;;21.70;100.00;101999.34;5014135;28;20053;-82
2023/08/23 08:36:35;;;;;;;6.53;4.95;;;;;;;21.83;100.00;101999.91;5051115;28;20506;-82
2023/08/23 08:39:03;;;;;;;9.93;5.53;;;;;;;21.92;100.00;102010.41;5039464;28;20489;-82
2023/08/23 08:41:30;;;;;;;8.85;6.28;;;;;;;21.89;100.00;102002.44;5042579;28;20413;-80
2023/08/23 08:43:59;;;;;;;9.70;5.07;;;;;;;21.86;100.00;102007.91;5051330;28;20055;-81
2023/08/23 08:46:27;;;;;;;5.85;4.70;;;;;;;21.80;100.00;102012.50;5051713;28;20048;-81
2023/08/23 08:48:54;;;;;;;5.43;4.68;;;;;;;21.76;100.00;102013.50;5059084;28;20047;-83
2023/08/23 08:51:24;;;;;;;9.43;5.85;;;;;;;21.72;100.00;102006.44;5078040;28;20055;-82
2023/08/23 08:53:54;;;;;;;8.27;5.32;;;;;;;21.74;100.00;102009.97;5061664;28;20432;-81
2023/08/23 08:56:21;;;;;;;8.23;5.47;;;;;;;21.78;100.00;102016.16;5064903;28;20048;-81
2023/08/23 08:58:54;;;;;;;7.43;5.32;;;;;;;21.87;100.00;102009.63;5056190;28;20049;-82
2023/08/23 09:01:23;;;;;;;8.95;5.60;;;;;;;22.00;100.00;102012.00;5083380;28;20488;-80
2023/08/23 09:03:50;;;;;;;7.95;5.28;;;;;;;22.09;100.00;102012.66;5025682;28;20048;-81
2023/08/23 09:06:20;;;;;;;6.00;5.40;;;;;;;22.15;100.00;102015.16;5087292;28;20082;-80
2023/08/23 09:08:49;;;;;;;5.88;5.30;;;;;;;22.18;100.00;102009.72;5071774;28;20122;-82
2023/08/23 09:11:17;;;;;;;11.50;5.35;;;;;;;22.17;100.00;102010.63;5056971;28;20059;-81
2023/08/23 09:13:47;;;;;;;6.18;5.38;;;;;;;22.18;100.00;102024.03;5036181;28;20055;-81
2023/08/23 09:16:15;;;;;;;10.40;4.82;;;;;;;22.24;100.00;102017.59;5071363;28;20488;-82
2023/08/23 09:18:46;;;;;;;6.18;5.40;;;;;;;22.29;100.00;102012.16;5035487;28;20056;-80
2023/08/23 09:21:14;;;;;;;8.02;5.43;;;;;;;22.37;100.00;102015.50;5045067;28;20040;-84
2023/08/23 09:23:41;;;;;;;7.50;4.97;;;;;;;22.55;100.00;102008.72;5079336;28;20048;-78
2023/08/23 09:26:09;;;;;;;6.53;4.47;;;;;;;22.71;100.00;102009.19;5067357;28;20048;-79
2023/08/23 09:28:38;;;;;;;7.72;5.25;;;;;;;22.86;100.00;102008.72;5034046;28;20166;-79
2023/08/23 09:31:09;;;;;;;4.35;3.92;;;;;;;23.05;100.00;102001.00;5052181;28;20401;-80
2023/08/23 09:33:40;;;;;;;6.13;4.80;;;;;;;23.21;100.00;102001.41;5068111;28;20412;-81
2023/08/23 09:36:08;;;;;;;6.85;4.60;;;;;;;23.30;100.00;101995.75;5014623;28;20768;-84
2023/08/23 09:38:35;;;;;;;6.82;4.50;;;;;;;23.42;100.00;101990.91;5053019;28;20074;-80
2023/08/23 09:41:03;;;;;;;6.55;3.88;;;;;;;23.54;100.00;101993.19;5044336;28;20048;-80
2023/08/23 09:43:33;;;;;;;8.45;4.80;;;;;;;23.56;100.00;101994.03;5068668;28;20056;-81
2023/08/23 09:46:03;;;;;;;10.95;4.72;;;;;;;23.51;100.00;101990.59;5072279;28;20055;-81
2023/08/23 09:48:33;;;;;;;16.77;5.45;;;;;;;23.48;100.00;101986.22;5085850;28;20052;-80
2023/08/23 09:51:02;;;;;;;5.82;4.82;;;;;;;23.49;100.00;101996.03;5047028;28;20063;-80
2023/08/23 09:53:34;;;;;;;7.50;4.55;;;;;;;23.48;100.00;101991.59;5047638;28;20057;-78
2023/08/23 09:56:07;;;;;;;6.65;4.10;;;;;;;23.57;100.00;101993.06;5067747;28;20056;-78
2023/08/23 09:58:36;;;;;;;6.85;4.35;;;;;;;23.62;100.00;101990.25;5048172;28;20064;-78
2023/08/23 10:01:04;;;;;;;7.97;4.35;;;;;;;23.67;100.00;101991.84;5039401;28;20044;-78
2023/08/23 10:03:32;;;;;;;5.95;4.43;;;;;;;23.66;100.00;101990.09;5051278;28;20052;-79
2023/08/23 10:06:00;;;;;;;7.20;5.03;;;;;;;23.65;100.00;101993.72;5053856;28;20048;-78
2023/08/23 10:08:31;;;;;;;6.82;3.95;;;;;;;23.69;100.00;101995.38;5038528;28;20409;-80
2023/08/23 10:11:05;;;;;;;4.93;4.28;;;;;;;23.68;100.00;101982.84;5072511;28;20052;-84
2023/08/23 10:13:35;;;;;;;6.00;4.22;;;;;;;23.65;100.00;101991.03;5065114;28;20063;-81
2023/08/23 10:16:05;;;;;;;8.15;4.43;;;;;;;23.59;100.00;101987.66;5063007;28;20496;-81
2023/08/23 10:18:34;;;;;;;4.82;3.65;;;;;;;23.48;100.00;101988.03;5081257;28;20048;-80
2023/08/23 10:21:02;;;;;;;4.13;3.80;;;;;;;23.39;100.00;101988.31;5076243;28;20048;-82
2023/08/23 10:23:34;;;;;;;7.00;4.03;;;;;;;23.35;100.00;101977.66;5016525;28;20063;-81
2023/08/23 10:26:02;;;;;;;5.88;3.55;;;;;;;23.33;100.00;101976.81;5062817;28;20194;-82
2023/08/23 10:28:30;;;;;;;5.82;3.38;;;;;;;23.30;100.00;101986.81;5062674;28;20056;-80
2023/08/23 10:30:59;;;;;;;4.35;3.17;;;;;;;23.34;100.00;101981.25;5028446;28;20044;-80
2023/08/23 10:33:48;;;;;;;5.43;3.67;;;;;;;23.39;100.00;101969.50;5072367;28;20044;-80
2023/08/23 10:36:38;;;;;;;5.80;3.80;;;;;;;23.44;100.00;101965.72;5068761;28;20806;-80
2023/08/23 10:39:06;;;;;;;;;;;;;;;23.50;100.00;101964.66;5027414;28;20052;-87
2023/08/23 10:41:34;;;;;;;6.30;3.88;;;;;;;23.64;100.00;101959.66;5081691;28;19924;-85
2023/08/23 10:44:02;;;;;;;5.70;3.88;;;;;;;23.71;100.00;101960.34;5086947;28;20053;-88
2023/08/23 10:46:42;;;;;;;9.77;3.33;;;;;;;23.62;100.00;101956.16;5052036;28;20048;-87
2023/08/23 10:49:16;;;;;;;5.82;4.10;;;;;;;23.53;100.00;101956.44;5072744;28;20515;-87
2023/08/23 10:51:43;;;;;;;4.85;3.88;;;;;;;23.47;100.00;101952.16;5072661;28;20414;-88
2023/08/23 10:54:17;;;;;;;7.55;4.05;;;;;;;23.41;100.00;101959.56;5032125;28;20480;-88
2023/08/23 10:56:50;;;;;;;8.25;4.88;;;;;;;23.32;100.00;101948.16;5069254;28;20040;-87
2023/08/23 10:59:17;;;;;;;6.63;5.03;;;;;;;23.28;100.00;101943.81;5059411;28;20063;-86
2023/08/23 11:01:47;;;;;;;5.28;3.95;;;;;;;23.30;100.00;101939.25;5056354;28;20052;-87
2023/08/23 11:04:15;;;;;;;6.40;4.40;;;;;;;23.36;100.00;101940.88;5073650;28;20056;-88
2023/08/23 11:06:45;;;;;;;5.75;4.28;;;;;;;23.36;100.00;101946.25;5091645;28;20051;-88
2023/08/23 11:09:16;;;;;;;7.05;4.55;;;;;;;23.43;100.00;101944.25;5023034;28;20053;-87
2023/08/23 11:11:50;;;;;;;8.30;4.20;;;;;;;23.60;100.00;101939.19;5065030;28;20048;-88
2023/08/23 11:14:18;;;;;;;8.27;4.57;;;;;;;23.72;100.00;101944.16;5055959;28;20059;-88
2023/08/23 11:16:46;;;;;;;8.18;3.75;;;;;;;23.85;100.00;101939.22;5058756;28;20059;-87
2023/08/23 11:19:15;;;;;;;6.85;3.30;;;;;;;24.01;100.00;101944.09;5039362;28;20044;-87